Newport News, VA (23612)

7:48 PM EST on January 29, 2015 (GMT -0500)
Riverside - Hidenwood | Change Station
CLOSE
Current Station
Personal Weather Station
Location: Newport News, VA
Elevation: 32 ft
Nearby Weather Stations

Elev 32 ft 37.09 °N, 76.51 °W | Updated 3 minutes ago

Overcast
Overcast
40.8 °F
Feels Like 34 °F
N
12.0
Wind Variable Wind from South
Gusts 12.0 mph

Today
High -- | Low -- °F
--% Chance of Precip.
Yesterday
High -- | Low -- °F
Precip. -- in
7:11 AM 5:27 PM
Waxing Gibbous, 78% visible
Pressure 30.12 in
Visibility 10.0 miles
Clouds Overcast 8000 ft
Windchill 34 °F
Dew Point 19 °F
Humidity 41%
Rainfall 0.00 in
Snow Depth Not available.
UV 0 out of 12
Pollen 1.20 out of 12
Air Quality Not available.
Flu Activity Not available.
METAR KPHF 292354Z 18008KT 10SM OVC080 06/M07 A3011 RMK AO2 SLP197 T00611067 10061 20044 56023

More Conditions Fewer Conditions

Pressure 30.12 in
Visibility 10.0 miles
Clouds Overcast 8000 ft
Windchill 34 °F
Dew Point 19 °F
Humidity 41%
Rainfall 0.00 in
Snow Depth Not available.
UV 0 out of 12
Pollen 1.20 out of 12
Air Quality Not available.
Flu Activity Not available.
METAR KPHF 292354Z 18008KT 10SM OVC080 06/M07 A3011 RMK AO2 SLP197 T00611067 10061 20044 56023

More Conditions Fewer Conditions

10-Day Weather Forecast

Almanac

Astronomy

Jan. 29, 2015 Rise Set
Actual Time
Civil Twilight
Nautical Twilight
Astronomical Twilight
Moon
Length of Visible Light
Length of Day
Tomorrow will be .
, % of the Moon is Illuminated

Today's Extremes

State Highs State Lows

Community

WunderPhotos

Upload Photos

1,791,657 photos uploaded!

WunderBlogs® & News

Nearby

Air Quality

  Air Quality AQ Index Pollutant
Not available.

Snow Depth

Station Depth Elevation

Earthquake Activity

City Distance Mag. Time & Date
Minimum magnitude displayed is 2.5.

Coastal Water Temperatures

Place Temperature

Nearby Weather Stations